createdAt,value
2019-06-07T00:00:59.601Z,74.68
2019-06-07T00:03:35.802Z,74.46
2019-06-07T00:06:16.450Z,74.60
2019-06-07T00:08:49.459Z,74.71
2019-06-07T00:11:25.408Z,75.04
2019-06-07T00:14:02.292Z,75.75
2019-06-07T00:16:38.335Z,77.28
2019-06-07T00:19:16.227Z,77.59
2019-06-07T00:22:15.857Z,78.47
2019-06-07T00:24:29.788Z,78.93
2019-06-07T00:27:05.871Z,79.70
2019-06-07T00:29:41.901Z,79.92
2019-06-07T00:32:19.974Z,80.60
2019-06-07T00:34:55.677Z,81.30
2019-06-07T00:37:31.624Z,82.18
2019-06-07T00:40:24.086Z,82.30
2019-06-07T00:42:45.899Z,83.33
2019-06-07T00:45:24.481Z,83.43
2019-06-07T00:47:59.599Z,84.26
2019-06-07T00:50:35.670Z,84.22
2019-06-07T00:53:15.505Z,84.59
2019-06-07T00:55:49.677Z,84.73
2019-06-07T00:58:29.151Z,84.60
2019-06-07T01:01:03.430Z,85.01
2019-06-07T01:03:40.719Z,85.12
2019-06-07T01:06:17.516Z,85.14
2019-06-07T01:08:54.469Z,85.28
2019-06-07T01:11:30.556Z,85.00
2019-06-07T01:14:07.005Z,85.44
2019-06-07T01:16:56.488Z,85.44
2019-06-07T01:19:22.257Z,85.85
2019-06-07T01:21:58.561Z,86.16
2019-06-07T01:24:34.508Z,86.41
2019-06-07T01:27:10.537Z,86.44
2019-06-07T01:29:46.525Z,86.17
2019-06-07T01:32:24.661Z,86.71
2019-06-07T01:35:00.417Z,86.81
2019-06-07T01:37:36.479Z,86.96
2019-06-07T01:40:14.653Z,87.34
2019-06-07T01:42:50.818Z,87.47
2019-06-07T01:45:30.653Z,87.27
2019-06-07T01:48:04.575Z,87.56
2019-06-07T01:50:40.627Z,87.42
2019-06-07T01:53:21.679Z,87.55
2019-06-07T01:55:54.494Z,87.27
2019-06-07T01:58:30.564Z,87.32
2019-06-07T02:01:06.667Z,87.20
2019-06-07T02:03:43.787Z,87.26
2019-06-07T02:06:21.038Z,87.18
2019-06-07T02:08:57.453Z,86.94
2019-06-07T02:11:34.317Z,86.80
2019-06-07T02:14:10.368Z,86.76
2019-06-07T02:16:46.428Z,86.46
2019-06-07T02:19:24.244Z,86.22
2019-06-07T02:22:02.734Z,86.19
2019-06-07T02:24:38.807Z,86.13
2019-06-07T02:27:14.884Z,86.30
2019-06-07T02:29:50.826Z,86.78
2019-06-07T02:32:29.853Z,86.65
2019-06-07T02:35:06.123Z,86.68
2019-06-07T02:37:43.256Z,86.53
2019-06-07T02:40:19.768Z,86.34
2019-06-07T02:42:57.878Z,86.34
2019-06-07T02:45:42.132Z,85.97
2019-06-07T02:48:11.554Z,86.13
2019-06-07T02:50:47.800Z,86.40
2019-06-07T02:53:25.651Z,86.08
2019-06-07T02:58:41.833Z,85.90
2019-06-07T03:01:17.711Z,85.67
2019-06-07T03:03:53.914Z,85.41
2019-06-07T03:06:35.700Z,85.25
2019-06-07T03:09:09.620Z,85.11
2019-06-07T03:11:48.348Z,84.76
2019-06-07T03:14:26.109Z,84.50
2019-06-07T03:17:11.350Z,84.52
2019-06-07T03:19:53.319Z,84.26
2019-06-07T03:22:32.061Z,83.94
2019-06-07T03:25:08.775Z,83.91
2019-06-07T03:27:49.864Z,83.80
2019-06-07T03:30:39.000Z,83.90
2019-06-07T03:33:00.610Z,83.49
2019-06-07T03:35:37.474Z,83.29
2019-06-07T03:38:13.720Z,83.49
2019-06-07T03:40:49.763Z,83.43
2019-06-07T03:43:27.342Z,83.44
2019-06-07T03:46:04.569Z,83.35
2019-06-07T03:48:41.457Z,83.47
2019-06-07T03:51:25.264Z,83.54
2019-06-07T03:53:55.498Z,83.88
2019-06-07T03:56:33.758Z,84.18
2019-06-07T03:59:09.554Z,84.05
2019-06-07T04:01:45.624Z,83.09
2019-06-07T04:04:21.784Z,83.11
2019-06-07T04:06:58.034Z,83.54
2019-06-07T04:09:40.153Z,84.00
2019-06-07T04:12:41.178Z,84.10
2019-06-07T04:15:39.604Z,83.62
2019-06-07T04:18:14.920Z,84.77
2019-06-07T04:20:50.948Z,84.79
2019-06-07T04:23:29.887Z,84.74
2019-06-07T04:26:04.901Z,84.91
2019-06-07T04:29:30.483Z,85.27
2019-06-07T04:31:18.584Z,85.65
2019-06-07T04:33:55.784Z,86.51
2019-06-07T04:36:46.084Z,86.22
2019-06-07T04:39:10.405Z,86.78
2019-06-07T04:41:49.375Z,86.20
2019-06-07T04:44:26.467Z,86.73
2019-06-07T04:47:04.769Z,86.82
2019-06-07T04:49:44.239Z,86.99
2019-06-07T04:52:20.572Z,87.24
2019-06-07T04:54:56.672Z,88.21
2019-06-07T04:57:34.856Z,87.74
2019-06-07T05:00:46.114Z,87.44
2019-06-07T05:02:50.153Z,88.05
2019-06-07T05:05:26.241Z,88.15
2019-06-07T05:08:07.542Z,88.67
2019-06-07T05:10:43.546Z,88.38
2019-06-07T05:13:19.277Z,88.10
2019-06-07T05:15:55.234Z,88.97
2019-06-07T05:18:33.682Z,89.50
2019-06-07T05:21:08.901Z,89.30
2019-06-07T05:24:07.649Z,89.30
2019-06-07T05:26:22.753Z,89.61
2019-06-07T05:28:58.672Z,90.00
2019-06-07T05:31:36.875Z,90.17
2019-06-07T05:34:12.980Z,90.15
2019-06-07T05:37:10.369Z,89.67
2019-06-07T05:39:26.943Z,89.24
2019-06-07T05:42:02.995Z,88.75
2019-06-07T05:44:39.998Z,88.36
2019-06-07T05:47:16.753Z,88.00
2019-06-07T05:50:38.575Z,87.48
2019-06-07T05:52:54.775Z,87.00
2019-06-07T05:55:30.848Z,86.34
2019-06-07T05:58:07.140Z,86.08
2019-06-07T06:00:44.603Z,85.75
2019-06-07T06:03:21.070Z,85.79
2019-06-07T06:05:57.108Z,85.69
2019-06-07T06:08:36.647Z,85.47
2019-06-07T06:11:10.887Z,85.63
2019-06-07T06:14:06.035Z,85.68
2019-06-07T06:16:24.746Z,85.59
2019-06-07T06:19:00.888Z,85.87
2019-06-07T06:21:38.577Z,85.68
2019-06-07T06:24:14.954Z,85.51
2019-06-07T06:26:55.179Z,85.41
2019-06-07T06:29:28.669Z,85.25
2019-06-07T06:34:46.220Z,84.35
2019-06-07T06:37:20.281Z,84.24
2019-06-07T06:39:56.232Z,84.12
2019-06-07T06:42:32.283Z,83.31
2019-06-07T06:45:10.203Z,82.94
2019-06-07T06:47:49.669Z,82.06
2019-06-07T06:50:23.874Z,82.04
2019-06-07T06:53:00.218Z,82.27
2019-06-07T06:55:36.171Z,81.57
2019-06-07T06:58:12.130Z,80.99
2019-06-07T07:01:04.082Z,80.55
2019-06-07T07:03:56.444Z,80.62
2019-06-07T07:06:25.294Z,80.11
2019-06-07T07:08:47.921Z,80.25
2019-06-07T07:11:24.406Z,80.49
2019-06-07T07:14:00.764Z,80.74
2019-06-07T07:16:37.854Z,81.44
2019-06-07T07:19:18.309Z,82.11
2019-06-07T07:21:55.407Z,82.92
2019-06-07T07:24:31.442Z,83.24
2019-06-07T07:27:07.399Z,82.78
2019-06-07T07:29:46.046Z,82.59
2019-06-07T07:32:21.276Z,82.34
2019-06-07T07:35:00.580Z,82.05
2019-06-07T07:37:36.974Z,81.58
2019-06-07T07:40:56.902Z,81.56
2019-06-07T07:43:11.925Z,81.37
2019-06-07T07:45:54.697Z,80.84
2019-06-07T07:48:25.996Z,80.01
2019-06-07T07:51:03.326Z,79.50
2019-06-07T07:53:52.046Z,78.24
2019-06-07T07:56:17.323Z,78.19
2019-06-07T07:59:00.085Z,76.28
2019-06-07T08:01:31.088Z,75.37
2019-06-07T08:04:07.279Z,74.66
2019-06-07T08:06:43.218Z,73.66
2019-06-07T08:09:19.167Z,73.54
2019-06-07T08:12:00.765Z,72.61
2019-06-07T08:14:35.081Z,71.92
2019-06-07T08:17:11.026Z,71.35
2019-06-07T08:19:48.076Z,72.06
2019-06-07T08:22:24.774Z,71.00
2019-06-07T08:25:04.174Z,70.70
2019-06-07T08:28:01.775Z,71.28
2019-06-07T08:31:03.622Z,72.01
2019-06-07T08:33:32.322Z,70.49
2019-06-07T08:36:20.055Z,70.68
2019-06-07T08:38:51.209Z,70.19
2019-06-07T08:41:25.322Z,69.48
2019-06-07T08:44:21.730Z,68.88
2019-06-07T08:46:39.405Z,68.95
2019-06-07T08:49:18.234Z,69.38
2019-06-07T08:51:57.725Z,69.50
2019-06-07T08:54:31.863Z,69.24
2019-06-07T08:57:20.655Z,69.67
2019-06-07T08:59:45.515Z,70.39
2019-06-07T09:02:24.110Z,71.40
2019-06-07T09:05:05.651Z,71.16
2019-06-07T09:07:37.466Z,72.34
2019-06-07T09:10:15.490Z,72.58
2019-06-07T09:12:54.417Z,73.05
2019-06-07T09:15:29.549Z,73.67
2019-06-07T09:20:50.481Z,73.79
2019-06-07T09:23:26.632Z,73.44
2019-06-07T09:26:10.574Z,73.71
2019-06-07T09:28:40.613Z,73.93
2019-06-07T09:31:17.676Z,74.41
2019-06-07T09:33:53.836Z,75.04
2019-06-07T09:36:29.922Z,75.34
2019-06-07T09:39:10.363Z,76.04
2019-06-07T09:41:49.844Z,76.15
2019-06-07T09:44:26.171Z,75.61
2019-06-07T09:47:20.258Z,75.74
2019-06-07T09:49:38.395Z,75.54
2019-06-07T09:52:14.564Z,75.12
2019-06-07T09:55:19.553Z,74.91
2019-06-07T09:57:28.201Z,74.52
2019-06-07T10:00:37.134Z,73.75
2019-06-07T10:02:43.462Z,73.94
2019-06-07T10:05:19.730Z,72.84
2019-06-07T10:08:09.749Z,72.15
2019-06-07T10:13:10.503Z,72.75
2019-06-07T10:15:46.543Z,72.25
2019-06-07T10:18:22.496Z,72.27
2019-06-07T10:20:59.335Z,70.82
2019-06-07T10:23:35.656Z,69.87
2019-06-07T10:26:11.689Z,68.93
2019-06-07T10:28:47.679Z,68.59
2019-06-07T10:31:23.714Z,68.27
2019-06-07T10:34:00.567Z,69.00
2019-06-07T10:36:36.822Z,66.94
2019-06-07T10:39:13.021Z,67.48
2019-06-07T10:41:49.058Z,67.49
2019-06-07T10:44:25.054Z,67.52
2019-06-07T10:47:01.730Z,67.67
2019-06-07T10:49:37.783Z,67.02
2019-06-07T10:52:15.467Z,65.53
2019-06-07T10:54:52.561Z,64.30
2019-06-07T10:57:28.709Z,64.20
2019-06-07T11:00:09.675Z,64.07
2019-06-07T11:02:45.881Z,63.33
2019-06-07T11:05:21.956Z,62.30
2019-06-07T11:08:00.695Z,61.22
2019-06-07T11:10:36.890Z,61.03
2019-06-07T11:13:14.373Z,61.59
2019-06-07T11:15:50.548Z,63.08
2019-06-07T11:18:26.498Z,63.34
2019-06-07T11:21:02.664Z,61.97
2019-06-07T11:23:38.828Z,62.84
2019-06-07T11:26:14.869Z,63.13
2019-06-07T11:28:50.975Z,62.48
2019-06-07T11:31:27.007Z,62.30
2019-06-07T11:34:04.188Z,62.98
2019-06-07T11:36:41.518Z,64.27
2019-06-07T11:39:18.881Z,64.54
2019-06-07T11:41:55.030Z,64.06
2019-06-07T11:44:30.974Z,63.67
2019-06-07T11:47:08.271Z,64.69
2019-06-07T11:49:44.340Z,64.83
2019-06-07T11:52:20.505Z,64.64
2019-06-07T11:54:56.448Z,65.02
2019-06-07T11:57:32.405Z,64.29
2019-06-07T12:00:13.962Z,63.26
2019-06-07T12:02:50.564Z,63.24
2019-06-07T12:05:26.509Z,61.06
2019-06-07T12:08:02.469Z,63.58
2019-06-07T12:10:42.461Z,63.20
2019-06-07T12:13:17.406Z,64.51
2019-06-07T12:15:53.921Z,60.51
2019-06-07T12:18:29.963Z,62.63
2019-06-07T12:21:05.996Z,61.84
2019-06-07T12:23:42.206Z,61.17
2019-06-07T12:26:18.638Z,60.61
2019-06-07T12:28:54.729Z,60.11
2019-06-07T12:31:30.686Z,58.90
2019-06-07T12:34:06.843Z,59.08
2019-06-07T12:36:42.805Z,59.87
2019-06-07T12:39:18.761Z,59.56
2019-06-07T12:41:56.164Z,59.22
2019-06-07T12:44:32.190Z,57.33
2019-06-07T12:47:08.165Z,58.32
2019-06-07T12:49:44.302Z,57.88
2019-06-07T12:52:22.843Z,57.21
2019-06-07T12:54:58.592Z,57.63
2019-06-07T12:57:34.961Z,58.30
2019-06-07T13:00:11.923Z,57.35
2019-06-07T13:02:48.489Z,56.64
2019-06-07T13:05:24.476Z,56.58
2019-06-07T13:08:00.532Z,56.95
2019-06-07T13:10:36.673Z,56.24
2019-06-07T13:13:13.167Z,54.86
2019-06-07T13:15:49.110Z,55.35
2019-06-07T13:18:25.702Z,55.23
2019-06-07T13:21:01.647Z,55.49
2019-06-07T13:23:37.818Z,56.49
2019-06-07T13:26:13.846Z,55.29
2019-06-07T13:28:49.825Z,55.06
2019-06-07T13:31:27.223Z,55.37
2019-06-07T13:34:03.579Z,55.28
2019-06-07T13:36:39.526Z,55.80
2019-06-07T13:39:15.481Z,56.19
2019-06-07T13:41:51.458Z,54.38
2019-06-07T13:44:29.176Z,54.37
2019-06-07T13:47:05.415Z,54.31
2019-06-07T13:49:41.867Z,55.16
2019-06-07T13:52:17.824Z,54.91
2019-06-07T13:54:53.782Z,56.26
2019-06-07T13:57:29.737Z,56.36
2019-06-07T14:00:11.436Z,55.67
2019-06-07T14:02:47.690Z,54.02
2019-06-07T14:05:25.047Z,52.14
2019-06-07T14:08:01.254Z,52.19
2019-06-07T14:10:37.303Z,53.35
2019-06-07T14:13:13.573Z,53.47
2019-06-07T14:15:49.520Z,52.85
2019-06-07T14:18:26.481Z,53.65
2019-06-07T14:21:02.563Z,52.71
2019-06-07T14:23:48.350Z,54.88
2019-06-07T14:26:16.423Z,55.45
2019-06-07T14:28:52.455Z,53.38
2019-06-07T14:31:28.437Z,53.41
2019-06-07T14:34:04.672Z,54.36
2019-06-07T14:36:41.778Z,54.15
2019-06-07T14:39:17.756Z,53.10
2019-06-07T14:42:08.409Z,53.20
2019-06-07T14:44:31.669Z,54.79
2019-06-07T14:47:07.760Z,54.34
2019-06-07T14:49:43.719Z,53.07
2019-06-07T14:52:19.673Z,51.36
2019-06-07T14:54:56.258Z,52.39
2019-06-07T14:57:33.700Z,51.52
2019-06-07T15:00:14.917Z,53.11
2019-06-07T15:02:52.110Z,52.83
2019-06-07T15:05:32.823Z,54.02
2019-06-07T15:08:09.025Z,51.87
2019-06-07T15:10:44.996Z,52.36
2019-06-07T15:13:23.207Z,50.92
2019-06-07T15:15:59.243Z,51.20
2019-06-07T15:18:36.104Z,50.37
2019-06-07T15:21:12.288Z,50.74
2019-06-07T15:23:48.470Z,50.26
2019-06-07T15:26:24.412Z,50.38
2019-06-07T15:29:01.339Z,50.55
2019-06-07T15:31:38.655Z,49.61
2019-06-07T15:34:14.945Z,50.04
2019-06-07T15:36:50.985Z,52.17
2019-06-07T15:39:26.971Z,51.67
2019-06-07T15:42:03.337Z,51.71
2019-06-07T15:44:39.587Z,51.20
2019-06-07T15:47:15.658Z,50.98
2019-06-07T15:49:51.610Z,51.40
2019-06-07T15:52:27.790Z,50.51
2019-06-07T15:55:05.366Z,50.88
2019-06-07T15:57:42.149Z,49.74
2019-06-07T16:00:19.998Z,49.94
2019-06-07T16:02:56.413Z,49.00
2019-06-07T16:05:32.357Z,48.50
2019-06-07T16:08:08.384Z,49.58
2019-06-07T16:10:45.139Z,49.27
2019-06-07T16:13:21.351Z,48.21
2019-06-07T16:15:57.307Z,47.91
2019-06-07T16:18:33.345Z,49.59
2019-06-07T16:21:09.341Z,48.80
2019-06-07T16:23:45.921Z,48.73
2019-06-07T16:26:21.855Z,49.04
2019-06-07T16:28:57.915Z,49.85
2019-06-07T16:31:35.233Z,49.92
2019-06-07T16:34:11.780Z,48.67
2019-06-07T16:36:48.842Z,49.03
2019-06-07T16:39:25.015Z,49.96
2019-06-07T16:42:01.066Z,51.33
2019-06-07T16:44:38.639Z,52.42
2019-06-07T16:47:14.837Z,52.56
2019-06-07T16:49:50.884Z,52.92
2019-06-07T16:52:27.166Z,54.08
2019-06-07T16:55:03.127Z,53.19
2019-06-07T16:57:40.817Z,53.70
2019-06-07T17:00:17.798Z,52.70
2019-06-07T17:02:53.961Z,53.29
2019-06-07T17:05:30.113Z,53.36
2019-06-07T17:08:06.638Z,53.25
2019-06-07T17:10:42.675Z,52.50
2019-06-07T17:13:32.426Z,52.60
2019-06-07T17:15:56.602Z,52.83
2019-06-07T17:18:32.665Z,53.64
2019-06-07T17:21:08.786Z,53.39
2019-06-07T17:23:45.901Z,53.66
2019-06-07T17:26:21.950Z,54.50
2019-06-07T17:28:57.941Z,54.83
2019-06-07T17:31:33.885Z,54.60
2019-06-07T17:34:11.172Z,55.23
2019-06-07T17:36:48.535Z,55.96
2019-06-07T17:39:26.770Z,56.42
2019-06-07T17:42:03.543Z,56.79
2019-06-07T17:44:39.499Z,57.14
2019-06-07T17:47:15.650Z,57.24
2019-06-07T17:49:52.245Z,56.90
2019-06-07T17:52:28.600Z,57.64
2019-06-07T17:55:10.587Z,58.35
2019-06-07T17:57:46.685Z,58.61
2019-06-07T18:00:33.332Z,59.17
2019-06-07T18:03:01.329Z,59.38
2019-06-07T18:05:37.293Z,59.68
2019-06-07T18:08:13.826Z,59.31
2019-06-07T18:10:50.121Z,59.73
2019-06-07T18:13:26.712Z,60.29
2019-06-07T18:16:02.748Z,60.98
2019-06-07T18:18:39.222Z,61.13
2019-06-07T18:21:15.169Z,61.65
2019-06-07T18:23:52.871Z,61.90
2019-06-07T18:26:30.066Z,62.39
2019-06-07T18:29:06.014Z,62.78
2019-06-07T18:31:42.103Z,63.27
2019-06-07T18:34:18.232Z,63.51
2019-06-07T18:36:55.217Z,63.94
2019-06-07T18:39:32.399Z,63.99
2019-06-07T18:42:08.660Z,64.29
2019-06-07T18:44:44.602Z,64.27
2019-06-07T18:47:20.585Z,64.81
2019-06-07T18:49:58.536Z,65.24
2019-06-07T18:52:37.303Z,65.68
2019-06-07T18:55:13.783Z,66.24
2019-06-07T18:57:50.209Z,66.81
2019-06-07T19:00:27.455Z,67.28
2019-06-07T19:03:05.226Z,67.46
2019-06-07T19:05:41.492Z,68.25
2019-06-07T19:08:17.528Z,68.46
2019-06-07T19:10:54.724Z,68.95
2019-06-07T19:13:30.992Z,69.14
2019-06-07T19:16:07.044Z,69.46
2019-06-07T19:18:43.084Z,69.58
2019-06-07T19:21:19.055Z,69.76
2019-06-07T19:23:56.258Z,69.84
2019-06-07T19:26:32.294Z,69.92
2019-06-07T19:29:08.358Z,70.00
2019-06-07T19:31:45.453Z,70.21
2019-06-07T19:34:22.842Z,70.06
2019-06-07T19:39:33.542Z,70.34
2019-06-07T19:42:09.577Z,70.56
2019-06-07T19:44:54.470Z,70.81
2019-06-07T19:47:24.364Z,71.08
2019-06-07T19:50:00.948Z,71.34
2019-06-07T19:52:37.074Z,71.50
2019-06-07T19:55:14.199Z,71.60
2019-06-07T19:57:50.307Z,72.02
2019-06-07T20:00:26.928Z,71.90
2019-06-07T20:03:04.449Z,71.82
2019-06-07T20:05:40.601Z,71.87
2019-06-07T20:08:16.590Z,72.01
2019-06-07T20:10:52.586Z,72.23
2019-06-07T20:13:28.644Z,72.67
2019-06-07T20:16:05.105Z,72.92
2019-06-07T20:18:41.181Z,73.29
2019-06-07T20:21:17.221Z,73.47
2019-06-07T20:23:53.308Z,73.91
2019-06-07T20:26:29.557Z,74.10
2019-06-07T20:29:05.806Z,74.06
2019-06-07T20:31:41.865Z,74.26
2019-06-07T20:34:17.816Z,74.45
2019-06-07T20:36:53.741Z,74.75
2019-06-07T20:39:29.734Z,74.77
2019-06-07T20:42:05.987Z,74.85
2019-06-07T20:44:42.060Z,75.22
2019-06-07T20:47:18.030Z,75.40
2019-06-07T20:49:54.087Z,75.34
2019-06-07T20:52:30.028Z,75.52
2019-06-07T20:55:07.221Z,75.83
2019-06-07T20:57:43.169Z,76.13
2019-06-07T21:00:22.135Z,76.14
2019-06-07T21:02:57.212Z,76.49
2019-06-07T21:05:33.169Z,76.89
2019-06-07T21:08:12.695Z,77.19
2019-06-07T21:10:46.706Z,77.24
2019-06-07T21:13:22.684Z,77.27
2019-06-07T21:15:59.904Z,77.43
2019-06-07T21:18:36.249Z,77.58
2019-06-07T21:21:12.380Z,77.75
2019-06-07T21:23:48.480Z,77.87
2019-06-07T21:26:24.420Z,77.95
2019-06-07T21:29:01.437Z,77.94
2019-06-07T21:31:37.670Z,78.13
2019-06-07T21:34:14.245Z,78.22
2019-06-07T21:36:50.413Z,78.37
2019-06-07T21:39:26.350Z,78.60
2019-06-07T21:42:02.311Z,78.60
2019-06-07T21:44:38.276Z,78.82
2019-06-07T21:47:14.333Z,78.64
2019-06-07T21:49:50.390Z,78.41
2019-06-07T21:52:27.688Z,78.40
2019-06-07T21:55:05.058Z,78.21
2019-06-07T21:57:41.018Z,77.85
2019-06-07T22:00:28.856Z,77.72
2019-06-07T22:03:07.323Z,77.65
2019-06-07T22:05:43.438Z,77.57
2019-06-07T22:08:19.491Z,77.48
2019-06-07T22:10:55.455Z,77.48
2019-06-07T22:13:31.506Z,77.32
2019-06-07T22:16:22.427Z,77.34
2019-06-07T22:18:45.172Z,77.33
2019-06-07T22:21:21.117Z,77.51
2019-06-07T22:23:57.070Z,77.97
2019-06-07T22:26:33.032Z,78.30
2019-06-07T22:29:10.237Z,78.53
2019-06-07T22:31:46.375Z,78.36
2019-06-07T22:34:22.469Z,77.98
2019-06-07T22:36:58.604Z,77.92
2019-06-07T22:39:34.663Z,77.88
2019-06-07T22:42:13.498Z,77.73
2019-06-07T22:44:50.041Z,77.84
2019-06-07T22:47:26.326Z,77.97
2019-06-07T22:50:10.718Z,78.06
2019-06-07T22:52:47.027Z,78.18
2019-06-07T22:55:23.091Z,78.20
2019-06-07T22:58:02.116Z,78.38
2019-06-07T23:00:39.613Z,78.42
2019-06-07T23:03:16.765Z,78.62
2019-06-07T23:05:52.967Z,78.99
2019-06-07T23:08:29.018Z,79.13
2019-06-07T23:11:05.070Z,79.42
2019-06-07T23:13:41.025Z,79.55
2019-06-07T23:16:17.778Z,79.72
2019-06-07T23:18:54.638Z,80.01
2019-06-07T23:21:30.644Z,80.14
2019-06-07T23:24:06.704Z,80.31
2019-06-07T23:26:42.757Z,80.61
2019-06-07T23:29:18.718Z,80.77
2019-06-07T23:31:54.870Z,80.91
2019-06-07T23:34:30.834Z,81.02
2019-06-07T23:37:06.886Z,80.97
2019-06-07T23:39:42.840Z,81.04
2019-06-07T23:42:19.732Z,81.21
2019-06-07T23:44:55.878Z,81.30
2019-06-07T23:47:31.944Z,81.50
2019-06-07T23:50:08.301Z,81.68
2019-06-07T23:52:45.395Z,81.73
2019-06-07T23:55:22.276Z,81.83
2019-06-07T23:57:59.451Z,82.11
